Time;durP1;ratioP1;P1;durP2;ratioP2;P2;SDS_P1;SDS_P2;PMS_P1;PMS_P2;Temp;Humidity;BMP_temperature;BMP_pressure;BME280_temperature;BME280_humidity;BME280_pressure;Samples;Min_cycle;Max_cycle;Signal;HPM_P1;HPM_P2
2024/04/04 00:01:02;;;;;;;;;1.50;1.50;;;;;;;;5050957;28;8816;-82
2024/04/04 00:03:29;;;;;;;;;3.75;1.00;;;;;;;;5051905;28;8956;-81
2024/04/04 00:05:56;;;;;;;;;2.50;2.50;;;;;;;;5051305;28;8863;-81
2024/04/04 00:08:22;;;;;;;;;3.00;1.75;;;;;;;;5051252;28;8855;-81
2024/04/04 00:10:56;;;;;;;;;1.25;0.00;;;;;;;;5046476;28;8893;-81
2024/04/04 00:13:23;;;;;;;;;1.00;1.00;;;;;;;;5053498;28;8831;-82
2024/04/04 00:15:51;;;;;;;;;3.00;2.50;;;;;;;;5052440;28;8936;-80
2024/04/04 00:18:17;;;;;;;;;2.75;2.25;;;;;;;;5052595;28;9005;-82
2024/04/04 00:20:47;;;;;;;;;3.00;3.00;;;;;;;;5051369;28;9635;-81
2024/04/04 00:23:14;;;;;;;;;5.00;2.00;;;;;;;;5050988;28;8847;-82
2024/04/04 00:25:42;;;;;;;;;5.00;3.00;;;;;;;;5050747;28;8874;-81
2024/04/04 00:28:08;;;;;;;;;2.50;2.50;;;;;;;;5050609;28;8871;-84
2024/04/04 00:30:37;;;;;;;;;4.00;2.00;;;;;;;;5050574;28;8799;-82
2024/04/04 00:33:04;;;;;;;;;4.00;2.75;;;;;;;;5050285;28;8974;-82
2024/04/04 00:35:31;;;;;;;;;2.25;2.00;;;;;;;;5051107;28;8855;-81
2024/04/04 00:37:57;;;;;;;;;4.25;3.00;;;;;;;;5050071;28;8863;-82
2024/04/04 00:40:24;;;;;;;;;2.75;2.25;;;;;;;;5051006;28;8944;-82
2024/04/04 00:42:51;;;;;;;;;3.25;2.00;;;;;;;;5050389;28;8835;-80
2024/04/04 00:45:18;;;;;;;;;3.00;3.00;;;;;;;;5050835;28;8851;-82
2024/04/04 00:47:49;;;;;;;;;6.25;3.00;;;;;;;;5051200;28;8978;-82
2024/04/04 00:50:17;;;;;;;;;4.50;2.75;;;;;;;;5053745;28;8968;-84
2024/04/04 00:52:45;;;;;;;;;6.75;3.75;;;;;;;;5045524;28;8984;-84
2024/04/04 00:55:14;;;;;;;;;5.50;2.25;;;;;;;;5050860;28;8975;-83
2024/04/04 00:57:41;;;;;;;;;3.75;2.00;;;;;;;;5050783;28;8862;-84
2024/04/04 01:00:09;;;;;;;;;2.75;1.00;;;;;;;;5049295;28;8874;-84
2024/04/04 01:02:36;;;;;;;;;2.75;2.00;;;;;;;;5043720;28;8867;-83
2024/04/04 01:05:05;;;;;;;;;4.50;3.25;;;;;;;;5050217;28;8843;-83
2024/04/04 01:07:32;;;;;;;;;3.50;2.50;;;;;;;;5050236;28;8921;-83
2024/04/04 01:10:05;;;;;;;;;3.00;3.00;;;;;;;;5050023;28;8846;-85
2024/04/04 01:12:31;;;;;;;;;1.50;1.50;;;;;;;;5051503;28;9011;-82
2024/04/04 01:14:58;;;;;;;;;3.00;2.25;;;;;;;;5051512;28;8966;-82
2024/04/04 01:17:25;;;;;;;;;4.25;3.00;;;;;;;;5052456;28;8855;-85
2024/04/04 01:19:52;;;;;;;;;3.75;3.75;;;;;;;;5053199;28;8964;-85
2024/04/04 01:22:20;;;;;;;;;2.50;2.00;;;;;;;;5053576;28;8847;-85
2024/04/04 01:24:48;;;;;;;;;4.00;2.75;;;;;;;;5052898;28;8875;-84
2024/04/04 01:27:15;;;;;;;;;5.00;3.50;;;;;;;;5052990;28;8950;-86
2024/04/04 01:29:42;;;;;;;;;2.75;2.75;;;;;;;;5053556;28;8847;-87
2024/04/04 01:32:08;;;;;;;;;5.75;2.75;;;;;;;;5050710;28;8816;-82
2024/04/04 01:34:35;;;;;;;;;3.25;3.00;;;;;;;;5049144;28;8933;-82
2024/04/04 01:37:02;;;;;;;;;3.00;3.00;;;;;;;;5049271;28;8879;-86
2024/04/04 01:39:29;;;;;;;;;4.75;3.00;;;;;;;;5049879;28;8875;-85
2024/04/04 01:41:57;;;;;;;;;3.00;3.00;;;;;;;;5049526;28;8859;-83
2024/04/04 01:44:24;;;;;;;;;7.25;4.00;;;;;;;;5049488;28;9662;-83
2024/04/04 01:46:50;;;;;;;;;2.75;2.75;;;;;;;;5048901;28;8881;-83
2024/04/04 01:49:18;;;;;;;;;4.75;3.25;;;;;;;;5049653;28;8879;-82
2024/04/04 01:51:45;;;;;;;;;8.25;4.00;;;;;;;;5049889;28;8946;-86
2024/04/04 01:54:12;;;;;;;;;5.50;4.00;;;;;;;;5052482;28;8839;-85
2024/04/04 01:56:38;;;;;;;;;5.75;3.50;;;;;;;;5050169;28;8883;-84
2024/04/04 01:59:07;;;;;;;;;4.00;3.00;;;;;;;;5049503;28;9012;-84
2024/04/04 02:01:33;;;;;;;;;3.00;3.00;;;;;;;;5048950;28;8854;-86
2024/04/04 02:04:00;;;;;;;;;2.00;2.00;;;;;;;;5051489;28;8922;-83
2024/04/04 02:06:26;;;;;;;;;4.00;3.50;;;;;;;;5061850;28;8851;-86
2024/04/04 02:08:57;;;;;;;;;3.50;3.00;;;;;;;;5051176;28;8890;-85
2024/04/04 02:11:23;;;;;;;;;5.50;3.75;;;;;;;;5049364;28;8847;-82
2024/04/04 02:13:51;;;;;;;;;7.25;5.50;;;;;;;;5049480;28;8885;-85
2024/04/04 02:16:18;;;;;;;;;3.00;3.00;;;;;;;;5049402;28;8859;-83
2024/04/04 02:18:48;;;;;;;;;5.00;3.50;;;;;;;;5049098;28;8867;-87
2024/04/04 02:21:17;;;;;;;;;2.75;2.75;;;;;;;;5049781;28;8885;-84
2024/04/04 02:23:44;;;;;;;;;4.50;3.00;;;;;;;;5049795;28;8940;-87
2024/04/04 02:26:11;;;;;;;;;3.25;2.00;;;;;;;;5050805;28;8989;-83
2024/04/04 02:28:38;;;;;;;;;5.50;3.75;;;;;;;;5050449;28;8832;-85
2024/04/04 02:31:05;;;;;;;;;3.00;3.00;;;;;;;;5050910;28;9628;-86
2024/04/04 02:33:34;;;;;;;;;3.25;3.25;;;;;;;;5049262;28;8847;-83
2024/04/04 02:36:00;;;;;;;;;5.00;3.00;;;;;;;;5049332;28;8865;-85
2024/04/04 02:38:27;;;;;;;;;4.00;2.75;;;;;;;;5048535;28;8847;-85
2024/04/04 02:40:54;;;;;;;;;2.00;2.00;;;;;;;;5049075;28;8881;-80
2024/04/04 02:43:21;;;;;;;;;3.00;3.00;;;;;;;;5044694;28;8866;-84
2024/04/04 02:45:48;;;;;;;;;3.25;2.00;;;;;;;;5048735;28;8893;-85
2024/04/04 02:48:15;;;;;;;;;3.00;2.00;;;;;;;;5048503;28;8856;-82
2024/04/04 02:50:53;;;;;;;;;1.25;1.25;;;;;;;;5048909;28;8859;-86
2024/04/04 02:53:20;;;;;;;;;2.50;2.50;;;;;;;;5048463;28;9698;-86
2024/04/04 02:55:54;;;;;;;;;3.25;3.00;;;;;;;;5049503;28;8878;-86
2024/04/04 02:58:21;;;;;;;;;2.25;2.25;;;;;;;;5048534;28;8855;-86
2024/04/04 03:00:48;;;;;;;;;5.00;2.00;;;;;;;;5049892;28;8779;-85
2024/04/04 03:03:18;;;;;;;;;2.00;2.00;;;;;;;;5051103;28;8863;-86
2024/04/04 03:05:48;;;;;;;;;1.75;1.25;;;;;;;;5062759;28;8829;-87
2024/04/04 03:08:19;;;;;;;;;2.75;2.75;;;;;;;;5041369;28;9295;-86
2024/04/04 03:10:45;;;;;;;;;2.25;2.25;;;;;;;;5053656;28;8871;-85
2024/04/04 03:13:12;;;;;;;;;4.50;2.25;;;;;;;;5056199;28;8881;-87
2024/04/04 03:15:38;;;;;;;;;2.50;2.00;;;;;;;;5058327;28;8887;-84
2024/04/04 03:18:06;;;;;;;;;2.75;2.75;;;;;;;;5057379;28;8855;-86
2024/04/04 03:20:32;;;;;;;;;2.25;1.00;;;;;;;;5055525;28;8910;-86
2024/04/04 03:23:01;;;;;;;;;1.75;1.50;;;;;;;;5053278;28;8874;-84
2024/04/04 03:25:27;;;;;;;;;3.25;2.50;;;;;;;;5052659;28;8859;-83
2024/04/04 03:27:54;;;;;;;;;4.75;3.00;;;;;;;;5053006;28;8967;-88
2024/04/04 03:30:21;;;;;;;;;2.75;2.25;;;;;;;;5052408;28;8952;-86
2024/04/04 03:32:48;;;;;;;;;4.50;3.00;;;;;;;;5052335;28;8843;-88
2024/04/04 03:35:15;;;;;;;;;1.75;1.75;;;;;;;;5052272;28;8859;-89
2024/04/04 03:37:42;;;;;;;;;3.75;3.00;;;;;;;;5052623;28;8862;-89
2024/04/04 03:40:14;;;;;;;;;1.25;1.25;;;;;;;;5052489;28;9515;-88
2024/04/04 03:42:42;;;;;;;;;2.00;2.00;;;;;;;;5053087;28;8882;-88
2024/04/04 03:45:08;;;;;;;;;3.25;1.00;;;;;;;;5052364;28;8843;-87
2024/04/04 03:47:35;;;;;;;;;2.00;2.00;;;;;;;;5051350;28;8873;-85
2024/04/04 03:50:02;;;;;;;;;2.25;1.75;;;;;;;;5052091;28;8897;-84
2024/04/04 03:52:29;;;;;;;;;2.00;2.00;;;;;;;;5053689;28;8854;-85
2024/04/04 03:54:57;;;;;;;;;4.25;3.00;;;;;;;;5053144;28;8956;-87
2024/04/04 03:57:25;;;;;;;;;0.75;0.75;;;;;;;;5054254;28;8859;-85
2024/04/04 03:59:52;;;;;;;;;3.50;1.75;;;;;;;;5052855;28;8874;-86
2024/04/04 04:02:19;;;;;;;;;3.25;1.50;;;;;;;;5051514;28;8807;-85
2024/04/04 04:04:48;;;;;;;;;2.00;2.00;;;;;;;;5054597;28;8894;-89
2024/04/04 04:07:17;;;;;;;;;1.00;1.00;;;;;;;;5069399;28;8867;-84
2024/04/04 04:09:43;;;;;;;;;2.00;2.00;;;;;;;;5051843;28;8867;-88
2024/04/04 04:12:11;;;;;;;;;2.25;1.00;;;;;;;;5051106;28;8902;-85
2024/04/04 04:14:39;;;;;;;;;2.25;2.00;;;;;;;;5052241;28;8973;-87
2024/04/04 04:17:06;;;;;;;;;1.50;1.00;;;;;;;;5052459;28;8855;-87
2024/04/04 04:19:33;;;;;;;;;2.25;2.25;;;;;;;;5052456;28;8851;-84
2024/04/04 04:22:00;;;;;;;;;2.75;2.00;;;;;;;;5051027;28;8866;-86
2024/04/04 04:24:27;;;;;;;;;1.75;1.75;;;;;;;;5051119;28;8974;-83
2024/04/04 04:26:54;;;;;;;;;2.00;2.00;;;;;;;;5051158;28;8858;-82
2024/04/04 04:29:21;;;;;;;;;1.00;1.00;;;;;;;;5051276;28;8843;-90
2024/04/04 04:31:54;;;;;;;;;0.75;0.75;;;;;;;;5050095;28;8881;-85
2024/04/04 04:34:20;;;;;;;;;2.00;2.00;;;;;;;;5051129;28;8867;-86
2024/04/04 04:36:55;;;;;;;;;2.00;1.00;;;;;;;;5049202;28;8855;-86
2024/04/04 04:39:24;;;;;;;;;1.00;1.00;;;;;;;;5050210;28;9685;-83
2024/04/04 04:41:53;;;;;;;;;1.00;1.00;;;;;;;;5050368;28;8856;-89
2024/04/04 04:44:19;;;;;;;;;2.00;2.00;;;;;;;;5050837;28;8855;-85
2024/04/04 04:47:01;;;;;;;;;1.25;1.00;;;;;;;;5050710;28;8843;-87
2024/04/04 04:49:31;;;;;;;;;0.00;0.00;;;;;;;;5052334;28;8875;-85
2024/04/04 04:52:02;;;;;;;;;1.00;1.00;;;;;;;;5052717;28;8954;-81
2024/04/04 04:54:28;;;;;;;;;1.00;1.00;;;;;;;;5052672;28;9594;-86
2024/04/04 04:56:59;;;;;;;;;1.00;1.00;;;;;;;;5054195;28;8862;-89
2024/04/04 04:59:25;;;;;;;;;0.00;0.00;;;;;;;;5055438;28;8929;-89
2024/04/04 05:01:55;;;;;;;;;0.00;0.00;;;;;;;;5053932;28;8823;-87
2024/04/04 05:04:21;;;;;;;;;0.00;0.00;;;;;;;;5054124;28;8874;-87
2024/04/04 05:06:54;;;;;;;;;0.00;0.00;;;;;;;;5065114;28;8835;-84
2024/04/04 05:09:20;;;;;;;;;0.00;0.00;;;;;;;;5053854;28;9733;-88
2024/04/04 05:11:52;;;;;;;;;0.00;0.00;;;;;;;;5050315;28;8863;-81
2024/04/04 05:14:19;;;;;;;;;0.00;0.00;;;;;;;;5049662;28;8847;-86
2024/04/04 05:16:46;;;;;;;;;0.00;0.00;;;;;;;;5049987;28;8855;-76
2024/04/04 05:19:14;;;;;;;;;0.00;0.00;;;;;;;;5047430;28;8933;-74
2024/04/04 05:21:41;;;;;;;;;0.00;0.00;;;;;;;;5048599;28;8962;-77
2024/04/04 05:24:07;;;;;;;;;0.00;0.00;;;;;;;;5048732;28;8847;-76
2024/04/04 05:26:34;;;;;;;;;0.00;0.00;;;;;;;;5048586;28;8863;-76
2024/04/04 05:29:01;;;;;;;;;0.00;0.00;;;;;;;;5048243;28;8985;-75
2024/04/04 05:31:28;;;;;;;;;0.00;0.00;;;;;;;;5048746;28;8823;-76
2024/04/04 05:33:54;;;;;;;;;0.00;0.00;;;;;;;;5048382;28;8886;-75
2024/04/04 05:36:25;;;;;;;;;0.00;0.00;;;;;;;;5048393;28;8862;-75
2024/04/04 05:38:52;;;;;;;;;0.00;0.00;;;;;;;;5049492;28;8847;-76
2024/04/04 05:41:19;;;;;;;;;0.00;0.00;;;;;;;;5050984;28;8874;-75
2024/04/04 05:43:45;;;;;;;;;0.00;0.00;;;;;;;;5048573;28;8929;-76
2024/04/04 05:46:12;;;;;;;;;0.00;0.00;;;;;;;;5049680;28;8894;-76
2024/04/04 05:48:39;;;;;;;;;0.00;0.00;;;;;;;;5047964;28;8859;-75
2024/04/04 05:51:06;;;;;;;;;0.00;0.00;;;;;;;;5048457;28;8847;-75
2024/04/04 05:53:33;;;;;;;;;0.00;0.00;;;;;;;;5048069;28;8986;-74
2024/04/04 05:56:01;;;;;;;;;0.75;0.00;;;;;;;;5047727;28;8855;-74
2024/04/04 05:58:27;;;;;;;;;0.00;0.00;;;;;;;;5048055;28;8881;-75
2024/04/04 06:00:54;;;;;;;;;0.00;0.00;;;;;;;;5046799;28;8870;-75
2024/04/04 06:03:23;;;;;;;;;0.00;0.00;;;;;;;;5048153;28;8881;-75
2024/04/04 06:05:52;;;;;;;;;0.00;0.00;;;;;;;;5057644;28;9226;-76
2024/04/04 06:08:18;;;;;;;;;0.00;0.00;;;;;;;;5048000;28;8855;-75
2024/04/04 06:10:49;;;;;;;;;0.00;0.00;;;;;;;;5047292;28;8875;-75
2024/04/04 06:13:15;;;;;;;;;0.00;0.00;;;;;;;;5047870;28;8854;-76
2024/04/04 06:15:45;;;;;;;;;0.00;0.00;;;;;;;;5047329;28;8975;-75
2024/04/04 06:18:11;;;;;;;;;0.00;0.00;;;;;;;;5048069;28;8898;-75
2024/04/04 06:20:39;;;;;;;;;1.00;0.00;;;;;;;;5046964;28;8994;-75
2024/04/04 06:23:05;;;;;;;;;0.00;0.00;;;;;;;;5047627;28;8867;-75
2024/04/04 06:25:32;;;;;;;;;0.00;0.00;;;;;;;;5047143;28;8866;-75
2024/04/04 06:28:00;;;;;;;;;0.00;0.00;;;;;;;;5048228;28;8855;-74
2024/04/04 06:30:27;;;;;;;;;0.00;0.00;;;;;;;;5047027;28;8796;-76
2024/04/04 06:32:56;;;;;;;;;0.00;0.00;;;;;;;;5047285;28;9085;-76
2024/04/04 06:35:25;;;;;;;;;0.00;0.00;;;;;;;;5045586;28;8827;-76
2024/04/04 06:37:55;;;;;;;;;0.50;0.00;;;;;;;;5048355;28;8881;-75
2024/04/04 06:40:24;;;;;;;;;0.00;0.00;;;;;;;;5047955;28;8870;-76
2024/04/04 06:42:51;;;;;;;;;0.00;0.00;;;;;;;;5049324;28;8855;-76
2024/04/04 06:45:19;;;;;;;;;0.00;0.00;;;;;;;;5048028;28;8839;-76
2024/04/04 06:47:55;;;;;;;;;0.00;0.00;;;;;;;;5048525;28;8863;-76
2024/04/04 06:50:23;;;;;;;;;0.00;0.00;;;;;;;;5047447;28;8877;-77
2024/04/04 06:52:49;;;;;;;;;0.00;0.00;;;;;;;;5048961;28;8925;-75
2024/04/04 06:55:17;;;;;;;;;0.00;0.00;;;;;;;;5050418;28;8851;-75
2024/04/04 06:57:43;;;;;;;;;0.00;0.00;;;;;;;;5049425;28;9771;-75
2024/04/04 07:00:12;;;;;;;;;0.00;0.00;;;;;;;;5046836;28;9700;-75
2024/04/04 07:02:40;;;;;;;;;0.00;0.00;;;;;;;;5046958;28;8858;-75
2024/04/04 07:05:08;;;;;;;;;1.00;0.00;;;;;;;;5053395;28;8845;-75
2024/04/04 07:07:35;;;;;;;;;0.00;0.00;;;;;;;;5051071;28;8863;-74
2024/04/04 07:10:03;;;;;;;;;0.75;0.00;;;;;;;;5046634;28;8877;-75
2024/04/04 07:12:29;;;;;;;;;1.00;0.00;;;;;;;;5047644;28;8912;-76
2024/04/04 07:14:56;;;;;;;;;0.00;0.00;;;;;;;;5047368;28;8831;-76
2024/04/04 07:17:29;;;;;;;;;0.00;0.00;;;;;;;;5046770;28;9671;-76
2024/04/04 07:19:58;;;;;;;;;0.00;0.00;;;;;;;;5047311;28;8855;-75
2024/04/04 07:22:25;;;;;;;;;0.00;0.00;;;;;;;;5047090;28;9004;-76
2024/04/04 07:24:53;;;;;;;;;0.00;0.00;;;;;;;;5046745;28;8974;-76
2024/04/04 07:27:19;;;;;;;;;0.00;0.00;;;;;;;;5047178;28;8866;-75
2024/04/04 07:29:47;;;;;;;;;1.00;0.00;;;;;;;;5048089;28;9634;-75
2024/04/04 07:32:14;;;;;;;;;0.00;0.00;;;;;;;;5047940;28;9582;-76
2024/04/04 07:34:41;;;;;;;;;0.00;0.00;;;;;;;;5047575;28;8882;-75
2024/04/04 07:37:09;;;;;;;;;0.00;0.00;;;;;;;;5046691;28;8912;-75
2024/04/04 07:39:37;;;;;;;;;0.00;0.00;;;;;;;;5046795;28;8981;-75
2024/04/04 07:42:03;;;;;;;;;0.00;0.00;;;;;;;;5046501;28;8881;-76
2024/04/04 07:44:33;;;;;;;;;0.00;0.00;;;;;;;;5046815;28;8877;-74
2024/04/04 07:46:59;;;;;;;;;0.00;0.00;;;;;;;;5047456;28;8985;-76
2024/04/04 07:49:26;;;;;;;;;0.00;0.00;;;;;;;;5046932;28;8866;-74
2024/04/04 07:51:53;;;;;;;;;0.00;0.00;;;;;;;;5046437;28;8977;-74
2024/04/04 07:54:21;;;;;;;;;0.00;0.00;;;;;;;;5046809;28;8928;-75
2024/04/04 07:56:47;;;;;;;;;0.00;0.00;;;;;;;;5034358;28;8997;-75
2024/04/04 07:59:15;;;;;;;;;0.00;0.00;;;;;;;;5048085;28;8997;-78
2024/04/04 08:01:42;;;;;;;;;0.00;0.00;;;;;;;;5049283;28;8835;-75
2024/04/04 08:04:10;;;;;;;;;0.00;0.00;;;;;;;;5050482;28;8847;-77
2024/04/04 08:06:36;;;;;;;;;0.00;0.00;;;;;;;;5060523;28;8897;-75
2024/04/04 08:09:06;;;;;;;;;0.00;0.00;;;;;;;;5049701;28;8835;-76
2024/04/04 08:11:34;;;;;;;;;0.00;0.00;;;;;;;;5050794;28;8867;-76
2024/04/04 08:14:02;;;;;;;;;0.00;0.00;;;;;;;;5049658;28;8881;-75
2024/04/04 08:16:29;;;;;;;;;0.00;0.00;;;;;;;;5051044;28;8843;-76
2024/04/04 08:18:58;;;;;;;;;0.50;0.00;;;;;;;;5050394;28;8867;-77
2024/04/04 08:21:25;;;;;;;;;1.50;0.00;;;;;;;;5050289;28;8879;-78
2024/04/04 08:23:53;;;;;;;;;0.00;0.00;;;;;;;;5050346;28;8874;-76
2024/04/04 08:26:24;;;;;;;;;0.00;0.00;;;;;;;;5051432;28;9622;-77
2024/04/04 08:28:53;;;;;;;;;0.00;0.00;;;;;;;;5050855;28;8851;-74
2024/04/04 08:31:21;;;;;;;;;1.00;1.00;;;;;;;;5050305;28;8926;-78
2024/04/04 08:33:48;;;;;;;;;1.50;0.00;;;;;;;;5050618;28;8843;-76
2024/04/04 08:36:15;;;;;;;;;0.00;0.00;;;;;;;;5051167;28;8890;-76
2024/04/04 08:38:42;;;;;;;;;1.00;1.00;;;;;;;;5050575;28;8859;-76
2024/04/04 08:41:09;;;;;;;;;0.00;0.00;;;;;;;;5051589;28;8859;-75
2024/04/04 08:43:37;;;;;;;;;0.75;0.00;;;;;;;;5051472;28;8871;-77
2024/04/04 08:46:06;;;;;;;;;0.00;0.00;;;;;;;;5051883;28;8851;-77
2024/04/04 08:48:34;;;;;;;;;0.00;0.00;;;;;;;;5049465;28;8858;-77
2024/04/04 08:51:00;;;;;;;;;0.00;0.00;;;;;;;;5049851;28;8847;-76
2024/04/04 08:53:28;;;;;;;;;0.00;0.00;;;;;;;;5049414;28;8858;-76
2024/04/04 08:55:55;;;;;;;;;0.00;0.00;;;;;;;;5049057;28;9614;-78
2024/04/04 08:58:24;;;;;;;;;0.00;0.00;;;;;;;;5049280;28;8952;-76
2024/04/04 09:00:51;;;;;;;;;0.00;0.00;;;;;;;;5048341;28;8886;-76
2024/04/04 09:03:21;;;;;;;;;0.00;0.00;;;;;;;;5049069;28;8874;-78
2024/04/04 09:05:49;;;;;;;;;0.25;0.00;;;;;;;;5058966;28;8845;-77
2024/04/04 09:08:16;;;;;;;;;0.00;0.00;;;;;;;;5049143;28;8871;-76
2024/04/04 09:10:45;;;;;;;;;0.00;0.00;;;;;;;;5040560;28;8890;-75
2024/04/04 09:13:13;;;;;;;;;1.25;0.00;;;;;;;;5039737;28;8851;-76
2024/04/04 09:15:42;;;;;;;;;0.00;0.00;;;;;;;;5047360;28;8885;-75
2024/04/04 09:18:11;;;;;;;;;0.00;0.00;;;;;;;;5048172;28;8861;-75
2024/04/04 09:20:42;;;;;;;;;0.00;0.00;;;;;;;;5044869;28;9636;-75
2024/04/04 09:23:10;;;;;;;;;0.00;0.00;;;;;;;;5049113;28;8874;-75
2024/04/04 09:25:37;;;;;;;;;0.00;0.00;;;;;;;;5041216;28;8850;-76
2024/04/04 09:28:06;;;;;;;;;0.50;0.00;;;;;;;;5047163;28;8870;-77
2024/04/04 09:30:33;;;;;;;;;0.00;0.00;;;;;;;;5047020;28;8808;-77
2024/04/04 09:33:00;;;;;;;;;0.00;0.00;;;;;;;;5047105;28;9686;-76
2024/04/04 09:35:27;;;;;;;;;0.00;0.00;;;;;;;;5048112;28;8962;-75
2024/04/04 09:38:00;;;;;;;;;0.00;0.00;;;;;;;;5048047;28;9491;-77
2024/04/04 09:40:27;;;;;;;;;0.00;0.00;;;;;;;;5045027;28;8869;-75
2024/04/04 09:43:03;;;;;;;;;0.00;0.00;;;;;;;;5046421;28;9343;-75
2024/04/04 09:45:29;;;;;;;;;0.00;0.00;;;;;;;;5045813;28;8894;-76
2024/04/04 09:47:57;;;;;;;;;0.00;0.00;;;;;;;;5048882;28;9049;-77
2024/04/04 09:50:25;;;;;;;;;0.25;0.00;;;;;;;;5050315;28;9213;-76
2024/04/04 09:52:53;;;;;;;;;0.00;0.00;;;;;;;;5048754;28;8879;-75
2024/04/04 09:55:21;;;;;;;;;0.00;0.00;;;;;;;;5048484;28;9048;-76
2024/04/04 09:57:49;;;;;;;;;0.00;0.00;;;;;;;;5047789;28;8906;-75
2024/04/04 10:00:17;;;;;;;;;0.00;0.00;;;;;;;;5047042;28;9013;-76
2024/04/04 10:02:48;;;;;;;;;0.00;0.00;;;;;;;;5046011;28;8863;-76
2024/04/04 10:05:16;;;;;;;;;0.00;0.00;;;;;;;;5055256;28;8860;-77
2024/04/04 10:07:44;;;;;;;;;0.00;0.00;;;;;;;;5049642;28;8855;-76
2024/04/04 10:10:15;;;;;;;;;0.00;0.00;;;;;;;;5048256;28;8881;-75
2024/04/04 10:12:51;;;;;;;;;0.00;0.00;;;;;;;;5047509;28;8993;-76
2024/04/04 10:15:18;;;;;;;;;0.25;0.25;;;;;;;;5048574;28;8862;-75
2024/04/04 10:17:51;;;;;;;;;0.00;0.00;;;;;;;;5047772;28;9622;-76
2024/04/04 10:20:17;;;;;;;;;1.25;0.00;;;;;;;;5048730;28;8847;-75
2024/04/04 10:22:45;;;;;;;;;0.00;0.00;;;;;;;;5049077;28;8847;-73
2024/04/04 10:25:12;;;;;;;;;2.75;0.00;;;;;;;;5049462;28;8855;-75
2024/04/04 10:27:41;;;;;;;;;0.00;0.00;;;;;;;;5050317;28;8878;-73
2024/04/04 10:30:09;;;;;;;;;0.00;0.00;;;;;;;;5049720;28;8955;-74
2024/04/04 10:32:37;;;;;;;;;1.50;0.00;;;;;;;;5049911;28;8882;-73
2024/04/04 10:35:06;;;;;;;;;2.00;0.00;;;;;;;;5048347;28;8839;-75
2024/04/04 10:37:36;;;;;;;;;0.00;0.00;;;;;;;;5047624;28;8907;-74
2024/04/04 10:40:03;;;;;;;;;1.25;1.00;;;;;;;;5048949;28;8856;-75
2024/04/04 10:42:35;;;;;;;;;1.00;0.75;;;;;;;;5048206;28;8956;-75
2024/04/04 10:45:02;;;;;;;;;0.50;0.00;;;;;;;;5048577;28;8926;-75
2024/04/04 10:47:34;;;;;;;;;0.25;0.25;;;;;;;;5048112;28;8870;-76
2024/04/04 10:50:05;;;;;;;;;0.00;0.00;;;;;;;;5047142;28;8862;-75
2024/04/04 10:52:32;;;;;;;;;2.00;0.50;;;;;;;;5047720;28;8850;-76
2024/04/04 10:54:58;;;;;;;;;1.00;1.00;;;;;;;;5047336;28;8870;-75
2024/04/04 10:57:26;;;;;;;;;0.00;0.00;;;;;;;;5047436;28;8839;-75
2024/04/04 10:59:55;;;;;;;;;2.25;1.00;;;;;;;;5046551;28;8839;-74
2024/04/04 11:02:25;;;;;;;;;1.00;1.00;;;;;;;;5046521;28;8799;-74
2024/04/04 11:04:54;;;;;;;;;0.50;0.50;;;;;;;;5050820;28;8926;-74
2024/04/04 11:07:21;;;;;;;;;1.25;0.00;;;;;;;;5053596;28;8847;-75
2024/04/04 11:09:47;;;;;;;;;1.00;0.00;;;;;;;;5047135;28;9010;-73
2024/04/04 11:12:15;;;;;;;;;2.25;1.00;;;;;;;;5046839;28;8855;-74
2024/04/04 11:14:44;;;;;;;;;2.25;0.75;;;;;;;;5047109;28;8855;-75
2024/04/04 11:17:13;;;;;;;;;1.00;1.00;;;;;;;;5046872;28;8862;-75
2024/04/04 11:19:40;;;;;;;;;0.75;0.75;;;;;;;;5046991;28;9590;-74
2024/04/04 11:22:08;;;;;;;;;1.50;0.00;;;;;;;;5046544;28;8921;-74
2024/04/04 11:24:35;;;;;;;;;3.00;1.00;;;;;;;;5046925;28;8958;-74
2024/04/04 11:27:02;;;;;;;;;2.00;0.25;;;;;;;;5046790;28;8843;-73
2024/04/04 11:29:30;;;;;;;;;2.00;1.00;;;;;;;;5047183;28;9212;-74
2024/04/04 11:31:57;;;;;;;;;1.75;0.00;;;;;;;;5046216;28;8815;-73
2024/04/04 11:34:26;;;;;;;;;4.75;1.75;;;;;;;;5049080;28;8863;-74
2024/04/04 11:36:56;;;;;;;;;1.75;0.75;;;;;;;;5050269;28;8885;-73
2024/04/04 11:39:29;;;;;;;;;2.25;2.00;;;;;;;;5050888;28;8874;-74
2024/04/04 11:41:56;;;;;;;;;1.00;1.00;;;;;;;;5049803;28;8913;-74
2024/04/04 11:44:25;;;;;;;;;4.00;1.25;;;;;;;;5050568;28;8843;-74
2024/04/04 11:46:53;;;;;;;;;1.00;1.00;;;;;;;;5050216;28;8843;-75
2024/04/04 11:49:19;;;;;;;;;2.00;2.00;;;;;;;;5050383;28;8855;-74
2024/04/04 11:51:47;;;;;;;;;1.50;1.50;;;;;;;;5050055;28;8963;-75
2024/04/04 11:54:13;;;;;;;;;2.80;2.00;;;;;;;;5050272;28;8948;-73
2024/04/04 11:56:42;;;;;;;;;1.40;0.00;;;;;;;;5049887;28;8863;-74
2024/04/04 11:59:08;;;;;;;;;1.80;1.80;;;;;;;;5050014;28;8835;-74
2024/04/04 12:01:35;;;;;;;;;1.80;0.40;;;;;;;;5049227;28;8811;-74
2024/04/04 12:04:02;;;;;;;;;1.00;1.00;;;;;;;;5050687;28;8847;-74
2024/04/04 12:06:29;;;;;;;;;0.60;0.60;;;;;;;;5060889;28;8902;-74
2024/04/04 12:08:55;;;;;;;;;1.00;1.00;;;;;;;;5049653;28;8913;-75
2024/04/04 12:11:23;;;;;;;;;1.00;1.00;;;;;;;;5051138;28;9618;-75
2024/04/04 12:13:52;;;;;;;;;1.60;0.40;;;;;;;;5051124;28;8855;-74
2024/04/04 12:16:20;;;;;;;;;0.00;0.00;;;;;;;;5051833;28;8859;-74
2024/04/04 12:21:38;;;;;;;;;2.80;0.80;;;;;;;;5053884;28;8981;-75
2024/04/04 12:24:07;;;;;;;;;2.00;2.00;;;;;;;;5049806;28;8877;-75
2024/04/04 12:26:33;;;;;;;;;1.80;0.60;;;;;;;;5050037;28;8850;-75
2024/04/04 12:29:04;;;;;;;;;1.80;1.80;;;;;;;;5049756;28;8962;-75
2024/04/04 12:31:30;;;;;;;;;1.40;1.40;;;;;;;;5053190;28;8779;-75
2024/04/04 12:33:58;;;;;;;;;2.60;1.80;;;;;;;;5052079;28;8875;-76
2024/04/04 12:36:24;;;;;;;;;1.20;1.00;;;;;;;;5049824;28;8901;-76
2024/04/04 12:38:51;;;;;;;;;2.40;1.00;;;;;;;;5049192;28;9598;-75
2024/04/04 12:41:18;;;;;;;;;2.40;1.20;;;;;;;;5049302;28;8847;-75
2024/04/04 12:43:46;;;;;;;;;0.80;0.80;;;;;;;;5049616;28;8993;-76
2024/04/04 12:46:14;;;;;;;;;5.00;1.00;;;;;;;;5049180;28;8866;-76
2024/04/04 12:48:42;;;;;;;;;2.60;0.80;;;;;;;;5049393;28;8863;-75
2024/04/04 12:51:08;;;;;;;;;1.00;1.00;;;;;;;;5049910;28;8870;-75
2024/04/04 12:53:35;;;;;;;;;0.80;0.80;;;;;;;;5050715;28;8971;-75
2024/04/04 12:56:03;;;;;;;;;0.00;0.00;;;;;;;;5051094;28;8855;-75
2024/04/04 12:58:30;;;;;;;;;4.20;1.20;;;;;;;;5051127;28;8886;-75
2024/04/04 13:00:59;;;;;;;;;1.20;1.20;;;;;;;;5047920;28;9653;-74
2024/04/04 13:03:27;;;;;;;;;1.40;1.40;;;;;;;;5049465;28;8932;-75
2024/04/04 13:05:54;;;;;;;;;5.00;1.80;;;;;;;;5058595;28;8886;-75
2024/04/04 13:08:22;;;;;;;;;2.00;2.00;;;;;;;;5049340;28;9660;-74
2024/04/04 13:10:48;;;;;;;;;2.20;2.20;;;;;;;;5048338;28;8869;-76
2024/04/04 13:13:15;;;;;;;;;3.20;1.00;;;;;;;;5048869;28;8874;-74
2024/04/04 13:15:44;;;;;;;;;1.00;1.00;;;;;;;;5048605;28;8831;-74
2024/04/04 13:18:11;;;;;;;;;2.80;2.80;;;;;;;;5048977;28;8854;-75
2024/04/04 13:20:39;;;;;;;;;1.00;1.00;;;;;;;;5048216;28;8875;-76
2024/04/04 13:23:06;;;;;;;;;4.00;2.00;;;;;;;;5048715;28;8851;-75
2024/04/04 13:25:35;;;;;;;;;4.20;3.00;;;;;;;;5048615;28;8839;-75
2024/04/04 13:28:02;;;;;;;;;1.40;1.40;;;;;;;;5049292;28;8936;-75
2024/04/04 13:30:29;;;;;;;;;1.40;1.00;;;;;;;;5049007;28;8779;-75
2024/04/04 13:32:57;;;;;;;;;4.00;2.00;;;;;;;;5048809;28;8877;-74
2024/04/04 13:35:24;;;;;;;;;3.60;1.60;;;;;;;;5048574;28;8875;-75
2024/04/04 13:37:52;;;;;;;;;3.20;1.40;;;;;;;;5048406;28;8851;-75
2024/04/04 13:40:20;;;;;;;;;2.20;1.60;;;;;;;;5048014;28;8909;-75
2024/04/04 13:42:47;;;;;;;;;1.80;1.00;;;;;;;;5048164;28;8843;-75
2024/04/04 13:45:13;;;;;;;;;2.60;2.00;;;;;;;;5048280;28;8855;-75
2024/04/04 13:47:41;;;;;;;;;2.80;1.80;;;;;;;;5048744;28;8888;-75
2024/04/04 13:50:08;;;;;;;;;4.20;2.00;;;;;;;;5047537;28;9598;-76
2024/04/04 13:52:35;;;;;;;;;9.60;1.80;;;;;;;;5048185;28;8889;-75
2024/04/04 13:55:03;;;;;;;;;2.00;0.80;;;;;;;;5045182;28;9050;-75
2024/04/04 13:57:31;;;;;;;;;3.20;2.00;;;;;;;;5048499;28;9013;-76
2024/04/04 13:59:57;;;;;;;;;6.20;2.00;;;;;;;;5048802;28;8855;-75
2024/04/04 14:02:27;;;;;;;;;2.20;0.80;;;;;;;;5048576;28;8837;-75
2024/04/04 14:04:56;;;;;;;;;0.40;0.40;;;;;;;;5034817;28;9450;-75
2024/04/04 14:07:24;;;;;;;;;3.00;1.60;;;;;;;;5054742;28;8986;-75
2024/04/04 14:09:50;;;;;;;;;1.20;1.00;;;;;;;;5050356;28;8869;-75
2024/04/04 14:12:18;;;;;;;;;2.80;1.40;;;;;;;;5048319;28;8897;-76
2024/04/04 14:14:45;;;;;;;;;4.40;2.00;;;;;;;;5036978;28;8977;-77
2024/04/04 14:17:13;;;;;;;;;2.20;1.00;;;;;;;;5049099;28;8847;-76
2024/04/04 14:19:40;;;;;;;;;2.80;1.40;;;;;;;;5050756;28;8889;-76
2024/04/04 14:22:08;;;;;;;;;1.20;1.20;;;;;;;;5049410;28;8851;-75
2024/04/04 14:24:36;;;;;;;;;2.40;0.00;;;;;;;;5046770;28;8932;-77
2024/04/04 14:27:04;;;;;;;;;4.20;1.80;;;;;;;;5047425;28;8839;-76
2024/04/04 14:29:34;;;;;;;;;1.20;1.20;;;;;;;;5048322;28;8963;-75
2024/04/04 14:32:01;;;;;;;;;0.80;0.80;;;;;;;;5047082;28;8779;-76
2024/04/04 14:34:28;;;;;;;;;3.80;1.00;;;;;;;;5047006;28;8885;-75
2024/04/04 14:36:55;;;;;;;;;2.60;0.80;;;;;;;;5047018;28;9629;-76
2024/04/04 14:39:21;;;;;;;;;2.80;2.00;;;;;;;;5047098;28;8945;-77
2024/04/04 14:41:49;;;;;;;;;4.20;1.80;;;;;;;;5040338;28;8843;-76
2024/04/04 14:44:15;;;;;;;;;2.00;0.20;;;;;;;;5043377;28;8841;-77
2024/04/04 14:46:44;;;;;;;;;1.00;1.00;;;;;;;;5044827;28;8994;-77
2024/04/04 14:49:11;;;;;;;;;1.20;1.20;;;;;;;;5047896;28;9639;-77
2024/04/04 14:51:38;;;;;;;;;6.20;1.00;;;;;;;;5051380;28;8851;-76
2024/04/04 14:54:06;;;;;;;;;1.00;1.00;;;;;;;;5048814;28;9687;-77
2024/04/04 14:56:37;;;;;;;;;2.60;2.00;;;;;;;;5047735;28;8855;-77
2024/04/04 14:59:05;;;;;;;;;1.00;1.00;;;;;;;;5047099;28;8851;-76
2024/04/04 15:01:34;;;;;;;;;4.00;1.00;;;;;;;;5046541;28;8838;-76
2024/04/04 15:04:04;;;;;;;;;1.80;1.20;;;;;;;;5047778;28;8867;-75